Time;durP1;ratioP1;P1;durP2;ratioP2;P2;SDS_P1;SDS_P2;PMS_P1;PMS_P2;Temp;Humidity;BMP_temperature;BMP_pressure;BME280_temperature;BME280_humidity;BME280_pressure;Samples;Min_cycle;Max_cycle;Signal;HPM_P1;HPM_P2
2023/04/01 00:00:36;;;;;;;;;;;;;;;11.88;56.20;93760.13;5065196;23;20331;-71
2023/04/01 00:02:38;;;;;;;;;;;;;;;11.67;56.88;93758.31;5092032;23;19921;-70
2023/04/01 00:04:40;;;;;;;;;;;;;;;11.63;57.38;93763.13;5092363;23;19984;-72
2023/04/01 00:06:41;;;;;;;;;;;;;;;11.57;57.39;93760.44;5093190;23;19920;-70
2023/04/01 00:08:44;;;;;;;;;;;;;;;11.65;57.27;93757.69;5092465;23;19920;-70
2023/04/01 00:10:45;;;;;;;;;;;;;;;11.63;57.54;93760.50;5065861;23;19925;-70
2023/04/01 00:12:47;;;;;;;;;;;;;;;11.60;57.64;93765.31;5066201;23;19921;-70
2023/04/01 00:14:49;;;;;;;;;;;;;;;11.51;57.62;93772.50;5090368;23;19925;-70
2023/04/01 00:16:50;;;;;;;;;;;;;;;11.35;57.80;93770.91;5092117;23;19920;-72
2023/04/01 00:18:52;;;;;;;;;;;;;;;11.31;57.91;93769.66;5091605;23;19956;-70
2023/04/01 00:20:53;;;;;;;;;;;;;;;11.34;57.89;93773.75;5092363;23;19925;-70
2023/04/01 00:22:56;;;;;;;;;;;;;;;11.17;57.91;93773.97;5092302;23;20347;-69
2023/04/01 00:24:57;;;;;;;;;;;;;;;10.71;58.71;93783.91;5091004;23;19989;-69
2023/04/01 00:26:59;;;;;;;;;;;;;;;10.55;59.32;93771.81;5092371;23;20431;-70
2023/04/01 00:29:01;;;;;;;;;;;;;;;10.42;59.23;93769.84;5091408;23;19921;-71
2023/04/01 00:31:08;;;;;;;;;;;;;;;10.41;59.74;93776.03;5090203;23;19921;-70
2023/04/01 00:33:10;;;;;;;;;;;;;;;10.56;59.46;93769.03;5092466;23;19924;-70
2023/04/01 00:35:12;;;;;;;;;;;;;;;10.68;59.35;93765.94;5064280;23;20030;-71
2023/04/01 00:37:14;;;;;;;;;;;;;;;10.79;59.35;93765.47;5042227;23;19969;-73
2023/04/01 00:39:16;;;;;;;;;;;;;;;10.93;59.36;93767.25;5065556;23;19925;-71
2023/04/01 00:41:19;;;;;;;;;;;;;;;10.98;60.11;93764.88;5041913;23;19971;-73
2023/04/01 00:43:20;;;;;;;;;;;;;;;11.02;59.24;93758.28;5091516;23;19928;-71
2023/04/01 00:45:32;;;;;;;;;;;;;;;11.10;59.40;93746.06;5089721;23;19943;-70
2023/04/01 00:47:33;;;;;;;;;;;;;;;11.13;59.00;93738.63;5066228;23;19927;-71
2023/04/01 00:49:39;;;;;;;;;;;;;;;11.16;59.14;93747.94;5065704;23;19945;-71
2023/04/01 00:51:41;;;;;;;;;;;;;;;11.15;59.73;93741.09;5065697;23;19920;-72
2023/04/01 00:53:43;;;;;;;;;;;;;;;11.15;59.39;93733.22;5065760;23;19988;-72
2023/04/01 00:55:54;;;;;;;;;;;;;;;11.10;60.01;93739.03;5065273;23;19921;-73
2023/04/01 00:57:56;;;;;;;;;;;;;;;11.12;59.92;93744.06;5090392;23;19924;-72
2023/04/01 00:59:59;;;;;;;;;;;;;;;11.15;59.61;93725.34;5063643;23;19953;-71
2023/04/01 01:02:01;;;;;;;;;;;;;;;11.17;59.75;93715.50;5091430;23;19928;-71
2023/04/01 01:04:03;;;;;;;;;;;;;;;11.21;59.52;93714.94;5065781;23;19943;-73
2023/04/01 01:06:04;;;;;;;;;;;;;;;11.17;59.36;93710.25;5065464;23;20316;-70
2023/04/01 01:08:18;;;;;;;;;;;;;;;11.16;59.59;93703.38;5065287;23;20870;-71
2023/04/01 01:10:25;;;;;;;;;;;;;;;11.21;59.24;93709.69;5064790;23;19929;-71
2023/04/01 01:12:29;;;;;;;;;;;;;;;11.19;58.93;93698.56;5091594;23;20301;-72
2023/04/01 01:14:54;;;;;;;;;;;;;;;11.26;58.94;93709.13;5089577;23;20222;-70
2023/04/01 01:17:22;;;;;;;;;;;;;;;11.22;58.88;93697.38;5079676;23;20456;-70
2023/04/01 01:19:47;;;;;;;;;;;;;;;11.27;58.28;93695.00;5087229;23;19925;-69
2023/04/01 01:22:11;;;;;;;;;;;;;;;11.24;58.58;93698.00;5090515;23;19972;-70
2023/04/01 01:24:13;;;;;;;;;;;;;;;11.22;58.70;93687.69;5064800;23;19920;-70
2023/04/01 01:26:33;;;;;;;;;;;;;;;11.22;58.32;93692.13;5090809;23;19921;-70
2023/04/01 01:28:46;;;;;;;;;;;;;;;11.22;58.10;93682.47;5090970;23;19921;-70
2023/04/01 01:30:51;;;;;;;;;;;;;;;11.20;58.48;93681.03;5089427;23;19920;-70
2023/04/01 01:32:59;;;;;;;;;;;;;;;11.21;58.43;93672.19;5091247;23;19967;-70
2023/04/01 01:35:17;;;;;;;;;;;;;;;11.23;58.52;93668.38;5064876;23;19921;-70
2023/04/01 01:37:19;;;;;;;;;;;;;;;11.27;57.83;93679.28;5091001;23;20509;-71
2023/04/01 01:39:26;;;;;;;;;;;;;;;11.30;57.83;93668.41;5090758;23;20416;-71
2023/04/01 01:41:28;;;;;;;;;;;;;;;11.24;57.61;93666.56;5066713;23;19921;-71
2023/04/01 01:43:36;;;;;;;;;;;;;;;11.22;57.45;93671.97;5090892;23;19921;-72
2023/04/01 01:45:39;;;;;;;;;;;;;;;11.24;57.46;93669.16;5063479;23;20263;-71
2023/04/01 01:47:41;;;;;;;;;;;;;;;11.26;57.70;93667.19;5064834;23;20316;-70
2023/04/01 01:49:42;;;;;;;;;;;;;;;11.24;57.49;93679.66;5065381;23;19928;-72
2023/04/01 01:51:44;;;;;;;;;;;;;;;11.26;57.77;93669.78;5065976;23;20015;-71
2023/04/01 01:53:45;;;;;;;;;;;;;;;11.20;57.64;93660.06;5091205;23;19945;-71
2023/04/01 01:55:47;;;;;;;;;;;;;;;11.24;57.23;93663.94;5091069;23;20342;-71
2023/04/01 01:57:49;;;;;;;;;;;;;;;11.28;56.83;93660.75;5065059;23;20288;-70
2023/04/01 01:59:51;;;;;;;;;;;;;;;11.22;56.68;93660.69;5089076;23;19980;-71
2023/04/01 02:01:53;;;;;;;;;;;;;;;11.22;56.57;93656.25;5065077;23;19921;-69
2023/04/01 02:03:55;;;;;;;;;;;;;;;11.20;56.78;93663.47;5065785;23;19921;-71
2023/04/01 02:05:57;;;;;;;;;;;;;;;11.22;56.28;93655.44;5091249;23;20366;-70
2023/04/01 02:08:18;;;;;;;;;;;;;;;11.25;56.93;93644.59;5065169;23;19928;-72
2023/04/01 02:10:20;;;;;;;;;;;;;;;11.26;57.36;93646.19;5064571;23;19928;-69
2023/04/01 02:12:21;;;;;;;;;;;;;;;11.27;56.26;93635.53;5064973;23;19976;-71
2023/04/01 02:14:24;;;;;;;;;;;;;;;11.37;56.10;93639.63;5089167;23;19921;-71
2023/04/01 02:16:34;;;;;;;;;;;;;;;11.45;55.52;93629.81;5064269;23;19929;-71
2023/04/01 02:18:37;;;;;;;;;;;;;;;11.44;55.32;93638.69;5065448;23;19920;-72
2023/04/01 02:20:38;;;;;;;;;;;;;;;11.43;54.96;93633.63;5064888;23;19921;-71
2023/04/01 02:22:41;;;;;;;;;;;;;;;11.42;54.69;93637.25;5065087;23;19921;-71
2023/04/01 02:24:43;;;;;;;;;;;;;;;11.41;54.68;93633.81;5090583;23;20496;-74
2023/04/01 02:26:45;;;;;;;;;;;;;;;11.42;54.86;93638.06;5064992;23;19921;-72
2023/04/01 02:28:46;;;;;;;;;;;;;;;11.37;55.36;93647.50;5090913;23;19920;-72
2023/04/01 02:30:48;;;;;;;;;;;;;;;11.40;55.68;93654.97;5062630;23;19921;-71
2023/04/01 02:32:49;;;;;;;;;;;;;;;11.45;55.27;93648.16;5065107;23;19928;-71
2023/04/01 02:34:51;;;;;;;;;;;;;;;11.57;55.02;93640.63;5065206;23;19921;-72
2023/04/01 02:36:53;;;;;;;;;;;;;;;11.66;54.83;93644.69;5090792;23;20288;-72
2023/04/01 02:38:55;;;;;;;;;;;;;;;11.77;54.32;93645.97;5090343;23;19921;-71
2023/04/01 02:40:58;;;;;;;;;;;;;;;11.81;54.50;93638.56;5040699;23;19921;-71
2023/04/01 02:42:59;;;;;;;;;;;;;;;11.74;54.18;93637.69;5090829;23;20330;-70
2023/04/01 02:45:01;;;;;;;;;;;;;;;11.52;54.95;93655.28;5088607;23;19920;-70
2023/04/01 02:47:02;;;;;;;;;;;;;;;11.30;56.16;93644.03;5090818;23;20311;-71
2023/04/01 02:49:04;;;;;;;;;;;;;;;11.32;56.09;93650.69;5090369;23;19927;-71
2023/04/01 02:51:06;;;;;;;;;;;;;;;11.31;56.17;93653.50;5040295;23;19972;-71
2023/04/01 02:53:08;;;;;;;;;;;;;;;11.18;56.95;93654.19;5064760;23;20347;-71
2023/04/01 02:55:09;;;;;;;;;;;;;;;11.05;57.76;93660.94;5091144;23;19921;-72
2023/04/01 02:57:11;;;;;;;;;;;;;;;10.97;58.69;93657.63;5089570;23;19921;-71
2023/04/01 02:59:13;;;;;;;;;;;;;;;11.06;58.13;93677.50;5090450;23;19921;-70
2023/04/01 03:01:14;;;;;;;;;;;;;;;11.19;57.17;93672.38;5063545;23;20393;-71
2023/04/01 03:03:16;;;;;;;;;;;;;;;11.33;56.73;93670.66;5064496;23;19928;-71
2023/04/01 03:05:18;;;;;;;;;;;;;;;11.28;57.08;93676.47;5090323;23;19924;-73
2023/04/01 03:07:19;;;;;;;;;;;;;;;11.06;57.80;93687.97;5090901;23;19920;-72
2023/04/01 03:09:21;;;;;;;;;;;;;;;11.12;57.90;93681.97;5090213;23;19925;-71
2023/04/01 03:11:22;;;;;;;;;;;;;;;11.15;57.39;93675.56;5090769;23;19944;-70
2023/04/01 03:13:24;;;;;;;;;;;;;;;11.17;57.28;93682.22;5090344;23;19924;-70
2023/04/01 03:15:26;;;;;;;;;;;;;;;11.25;57.50;93691.78;5062620;23;19962;-72
2023/04/01 03:17:27;;;;;;;;;;;;;;;11.22;57.26;93685.09;5090570;23;19968;-72
2023/04/01 03:19:29;;;;;;;;;;;;;;;11.18;57.79;93670.72;5090410;23;19927;-70
2023/04/01 03:21:31;;;;;;;;;;;;;;;11.06;58.25;93685.34;5090072;23;19937;-68
2023/04/01 03:23:32;;;;;;;;;;;;;;;10.80;58.82;93688.50;5064691;23;19934;-70
2023/04/01 03:25:34;;;;;;;;;;;;;;;10.86;58.93;93691.19;5090388;23;19952;-69
2023/04/01 03:27:35;;;;;;;;;;;;;;;10.85;59.46;93696.63;5063987;23;19925;-71
2023/04/01 03:29:37;;;;;;;;;;;;;;;10.94;60.63;93699.94;5088692;23;19928;-70
2023/04/01 03:31:39;;;;;;;;;;;;;;;10.97;60.45;93692.53;5090902;23;19927;-71
2023/04/01 03:33:40;;;;;;;;;;;;;;;10.80;61.25;93689.31;5064464;23;19952;-70
2023/04/01 03:35:42;;;;;;;;;;;;;;;10.89;61.55;93684.78;5090636;23;19920;-69
2023/04/01 03:37:43;;;;;;;;;;;;;;;10.89;60.01;93679.53;5090203;23;19926;-70
2023/04/01 03:39:45;;;;;;;;;;;;;;;10.90;60.81;93675.09;5090276;23;19927;-70
2023/04/01 03:41:47;;;;;;;;;;;;;;;10.96;60.34;93662.06;5090225;23;19921;-69
2023/04/01 03:43:48;;;;;;;;;;;;;;;11.05;60.36;93647.03;5090578;23;19971;-70
2023/04/01 03:45:50;;;;;;;;;;;;;;;11.04;60.10;93638.34;5063872;23;20046;-70
2023/04/01 03:47:52;;;;;;;;;;;;;;;11.04;60.33;93627.88;5092052;23;20207;-71
2023/04/01 03:49:54;;;;;;;;;;;;;;;11.12;60.86;93618.25;5092387;23;20291;-69
2023/04/01 03:51:55;;;;;;;;;;;;;;;11.13;60.26;93612.03;5091732;23;19940;-70
2023/04/01 03:53:57;;;;;;;;;;;;;;;11.10;60.48;93604.50;5091986;23;20421;-70
2023/04/01 03:55:58;;;;;;;;;;;;;;;11.06;60.25;93591.81;5065839;23;19948;-70
2023/04/01 03:58:01;;;;;;;;;;;;;;;11.10;60.25;93588.78;5065725;23;19951;-71
2023/04/01 04:00:03;;;;;;;;;;;;;;;11.14;60.99;93579.56;5090511;23;20331;-71
2023/04/01 04:02:05;;;;;;;;;;;;;;;11.12;60.90;93571.91;5091744;23;19971;-72
2023/04/01 04:04:06;;;;;;;;;;;;;;;11.16;60.52;93582.78;5066549;23;19924;-72
2023/04/01 04:06:10;;;;;;;;;;;;;;;11.25;60.12;93582.47;5066499;23;19925;-71
2023/04/01 04:08:12;;;;;;;;;;;;;;;11.24;60.12;93572.16;5092415;23;19956;-71
2023/04/01 04:10:14;;;;;;;;;;;;;;;11.23;59.71;93566.13;5092202;23;20433;-73
2023/04/01 04:12:15;;;;;;;;;;;;;;;11.29;59.31;93561.91;5066743;23;20001;-72
2023/04/01 04:14:17;;;;;;;;;;;;;;;11.31;60.37;93554.66;5090871;23;19955;-71
2023/04/01 04:16:18;;;;;;;;;;;;;;;11.14;59.74;93550.72;5091520;23;19931;-72
2023/04/01 04:18:20;;;;;;;;;;;;;;;10.94;60.29;93543.50;5066484;23;20379;-72
2023/04/01 04:20:21;;;;;;;;;;;;;;;10.79;60.66;93545.41;5066956;23;19924;-71
2023/04/01 04:22:23;;;;;;;;;;;;;;;10.73;61.17;93548.78;5092581;23;19959;-73
2023/04/01 04:24:25;;;;;;;;;;;;;;;10.73;61.34;93535.69;5091561;23;19921;-72
2023/04/01 04:26:26;;;;;;;;;;;;;;;10.84;60.99;93551.72;5092206;23;19956;-75
2023/04/01 04:28:28;;;;;;;;;;;;;;;10.95;60.88;93544.31;5092604;23;19925;-74
2023/04/01 04:30:30;;;;;;;;;;;;;;;10.93;60.55;93544.53;5064693;23;20404;-72
2023/04/01 04:32:31;;;;;;;;;;;;;;;10.98;59.71;93543.97;5091974;23;19921;-73
2023/04/01 04:34:33;;;;;;;;;;;;;;;10.88;59.39;93549.50;5092063;23;19995;-73
2023/04/01 04:36:34;;;;;;;;;;;;;;;10.86;59.47;93546.25;5092242;23;19921;-72
2023/04/01 04:38:36;;;;;;;;;;;;;;;10.93;59.45;93554.22;5091750;23;19941;-71
2023/04/01 04:40:38;;;;;;;;;;;;;;;11.02;59.27;93546.00;5091915;23;19979;-72
2023/04/01 04:42:39;;;;;;;;;;;;;;;11.08;59.16;93518.25;5091978;23;19921;-70
2023/04/01 04:44:41;;;;;;;;;;;;;;;10.96;59.43;93504.84;5090168;23;19929;-72
2023/04/01 04:46:43;;;;;;;;;;;;;;;10.78;59.87;93507.13;5091823;23;20015;-71
2023/04/01 04:48:45;;;;;;;;;;;;;;;10.78;60.22;93517.59;5091855;23;19921;-71
2023/04/01 04:50:49;;;;;;;;;;;;;;;10.84;60.03;93522.06;5091946;23;19927;-72
2023/04/01 04:52:51;;;;;;;;;;;;;;;10.77;59.72;93510.72;5092128;23;19928;-71
2023/04/01 04:54:53;;;;;;;;;;;;;;;10.77;59.54;93516.78;5091866;23;19920;-72
2023/04/01 04:56:54;;;;;;;;;;;;;;;10.74;58.01;93508.50;5066560;23;19956;-72
2023/04/01 04:58:56;;;;;;;;;;;;;;;10.78;58.16;93512.38;5041521;23;19921;-73
2023/04/01 05:00:58;;;;;;;;;;;;;;;10.82;57.76;93506.56;5064522;23;20347;-72
2023/04/01 05:02:59;;;;;;;;;;;;;;;10.95;58.06;93508.47;5092393;23;20347;-74
2023/04/01 05:05:01;;;;;;;;;;;;;;;10.80;57.92;93495.44;5091967;23;19920;-72
2023/04/01 05:07:03;;;;;;;;;;;;;;;10.88;58.57;93499.72;5092085;23;19921;-71
2023/04/01 05:09:04;;;;;;;;;;;;;;;10.96;57.48;93494.34;5092031;23;19920;-73
2023/04/01 05:11:09;;;;;;;;;;;;;;;11.00;57.52;93494.78;5091577;23;19920;-73
2023/04/01 05:13:11;;;;;;;;;;;;;;;11.07;57.46;93498.25;5092026;23;20338;-71
2023/04/01 05:15:13;;;;;;;;;;;;;;;10.92;58.33;93494.94;5064060;23;19921;-72
2023/04/01 05:17:15;;;;;;;;;;;;;;;10.64;57.89;93470.31;5091751;23;19946;-73
2023/04/01 05:19:16;;;;;;;;;;;;;;;10.62;58.09;93472.31;5092150;23;19975;-73
2023/04/01 05:21:18;;;;;;;;;;;;;;;10.70;58.54;93478.44;5091305;23;19931;-74
2023/04/01 05:23:21;;;;;;;;;;;;;;;10.75;58.13;93452.47;5092009;23;19920;-75
2023/04/01 05:25:22;;;;;;;;;;;;;;;10.65;57.22;93461.47;5065597;23;19921;-71
2023/04/01 05:27:24;;;;;;;;;;;;;;;10.65;57.66;93471.97;5066237;23;19932;-73
2023/04/01 05:29:25;;;;;;;;;;;;;;;10.83;57.59;93473.31;5090612;23;19924;-72
2023/04/01 05:31:27;;;;;;;;;;;;;;;10.96;57.35;93459.47;5092029;23;20419;-73
2023/04/01 05:33:29;;;;;;;;;;;;;;;10.83;57.22;93449.72;5066424;23;20292;-72
2023/04/01 05:35:31;;;;;;;;;;;;;;;10.96;57.11;93480.44;5091788;23;19928;-73
2023/04/01 05:37:34;;;;;;;;;;;;;;;11.11;56.93;93470.66;5091950;23;19921;-73
2023/04/01 05:39:37;;;;;;;;;;;;;;;11.10;56.47;93449.88;5091216;23;19927;-74
2023/04/01 05:41:38;;;;;;;;;;;;;;;11.15;56.11;93452.75;5092282;23;20294;-73
2023/04/01 05:43:40;;;;;;;;;;;;;;;11.35;56.23;93460.72;5091253;23;19990;-71
2023/04/01 05:45:41;;;;;;;;;;;;;;;11.59;55.42;93462.03;5090089;23;19927;-73
2023/04/01 05:47:43;;;;;;;;;;;;;;;11.73;54.48;93471.59;5091400;23;19921;-74
2023/04/01 05:49:45;;;;;;;;;;;;;;;11.91;53.81;93462.38;5091971;23;19983;-77
2023/04/01 05:51:46;;;;;;;;;;;;;;;12.00;53.12;93458.56;5066163;23;19952;-72
2023/04/01 05:53:48;;;;;;;;;;;;;;;12.11;52.80;93454.56;5091470;23;20153;-73
2023/04/01 05:55:49;;;;;;;;;;;;;;;12.22;52.96;93449.56;5091282;23;19945;-73
2023/04/01 05:57:51;;;;;;;;;;;;;;;12.09;52.42;93441.66;5065948;23;19921;-72
2023/04/01 05:59:52;;;;;;;;;;;;;;;12.14;51.96;93439.22;5089212;23;20019;-73
2023/04/01 06:01:54;;;;;;;;;;;;;;;12.37;52.13;93451.16;5091527;23;19921;-71
2023/04/01 06:03:55;;;;;;;;;;;;;;;12.42;52.02;93433.00;5091379;23;20355;-72
2023/04/01 06:05:57;;;;;;;;;;;;;;;12.14;52.27;93447.09;5091437;23;19921;-73
2023/04/01 06:08:00;;;;;;;;;;;;;;;12.24;51.71;93444.91;5063709;23;20304;-71
2023/04/01 06:10:02;;;;;;;;;;;;;;;12.42;51.75;93454.03;5089444;23;19956;-71
2023/04/01 06:12:06;;;;;;;;;;;;;;;12.58;51.87;93443.09;5038016;23;20620;-72
2023/04/01 06:14:14;;;;;;;;;;;;;;;12.65;50.71;93438.69;5090120;23;19927;-74
2023/04/01 06:16:34;;;;;;;;;;;;;;;12.45;50.64;93441.31;5090321;23;19920;-74
2023/04/01 06:19:02;;;;;;;;;;;;;;;12.33;51.44;93436.84;5091210;23;19928;-77
2023/04/01 06:21:04;;;;;;;;;;;;;;;12.36;50.86;93439.06;5076438;23;19944;-74
2023/04/01 06:23:05;;;;;;;;;;;;;;;12.35;51.09;93445.34;5091552;23;19927;-72
2023/04/01 06:25:25;;;;;;;;;;;;;;;12.45;50.32;93445.72;5063100;23;19931;-73
2023/04/01 06:27:46;;;;;;;;;;;;;;;12.49;50.49;93457.44;5089812;23;20017;-72
2023/04/01 06:29:53;;;;;;;;;;;;;;;12.63;50.71;93443.31;5089974;23;20214;-73
2023/04/01 06:31:57;;;;;;;;;;;;;;;12.83;50.41;93432.00;5091597;23;19920;-74
2023/04/01 06:34:14;;;;;;;;;;;;;;;12.91;48.87;93421.28;5064775;23;19924;-72
2023/04/01 06:36:19;;;;;;;;;;;;;;;12.94;49.05;93431.38;5091089;23;19927;-74
2023/04/01 06:38:26;;;;;;;;;;;;;;;12.90;48.98;93433.59;5091364;23;20334;-72
2023/04/01 06:40:28;;;;;;;;;;;;;;;12.96;48.71;93418.81;5088888;23;19971;-73
2023/04/01 06:42:45;;;;;;;;;;;;;;;12.67;49.16;93399.06;5062600;23;19929;-76
2023/04/01 06:44:54;;;;;;;;;;;;;;;12.39;50.12;93394.00;5061704;23;20264;-74
2023/04/01 06:47:15;;;;;;;;;;;;;;;12.18;50.85;93402.91;5064814;23;19952;-73
2023/04/01 06:49:22;;;;;;;;;;;;;;;12.27;51.13;93417.44;5091148;23;20282;-74
2023/04/01 06:51:30;;;;;;;;;;;;;;;12.38;50.64;93397.66;5091607;23;20011;-74
2023/04/01 06:53:44;;;;;;;;;;;;;;;12.42;49.93;93389.16;5065751;23;19928;-77
2023/04/01 06:55:46;;;;;;;;;;;;;;;12.54;49.86;93394.63;5065517;23;19921;-75
2023/04/01 06:57:49;;;;;;;;;;;;;;;12.70;50.11;93390.75;5090909;23;19975;-73
2023/04/01 06:59:50;;;;;;;;;;;;;;;12.66;49.75;93390.34;5063842;23;19925;-77
2023/04/01 07:01:55;;;;;;;;;;;;;;;12.60;50.23;93393.00;5065223;23;19921;-75
2023/04/01 07:03:59;;;;;;;;;;;;;;;12.58;50.63;93392.38;5065049;23;19921;-76
2023/04/01 07:06:02;;;;;;;;;;;;;;;12.73;50.89;93389.53;5041639;23;20426;-75
2023/04/01 07:08:11;;;;;;;;;;;;;;;12.70;50.86;93409.97;5091191;23;19968;-76
2023/04/01 07:10:20;;;;;;;;;;;;;;;12.63;51.27;93401.28;5064981;23;19921;-73
2023/04/01 07:12:26;;;;;;;;;;;;;;;12.59;51.69;93399.28;5064457;23;19925;-75
2023/04/01 07:14:35;;;;;;;;;;;;;;;12.66;51.69;93394.81;5041104;23;20307;-75
2023/04/01 07:16:39;;;;;;;;;;;;;;;12.76;51.75;93378.63;5091595;23;19920;-76
2023/04/01 07:18:46;;;;;;;;;;;;;;;12.42;52.83;93370.78;5041429;23;19921;-74
2023/04/01 07:20:47;;;;;;;;;;;;;;;12.47;52.39;93393.81;5067210;23;19921;-72
2023/04/01 07:22:49;;;;;;;;;;;;;;;12.52;52.82;93395.81;5067565;23;19925;-71
2023/04/01 07:24:51;;;;;;;;;;;;;;;12.64;53.05;93402.09;5043863;23;19925;-76
2023/04/01 07:26:54;;;;;;;;;;;;;;;12.83;52.95;93410.97;5067567;23;19921;-77
2023/04/01 07:28:56;;;;;;;;;;;;;;;13.02;52.36;93418.00;5066455;23;19921;-76
2023/04/01 07:31:09;;;;;;;;;;;;;;;12.87;51.92;93378.00;5041278;23;20281;-74
2023/04/01 07:33:14;;;;;;;;;;;;;;;12.61;53.06;93397.25;5091514;23;20279;-74
2023/04/01 07:35:31;;;;;;;;;;;;;;;12.77;52.83;93423.09;5042625;23;19925;-76
2023/04/01 07:37:39;;;;;;;;;;;;;;;12.83;52.03;93390.75;5092637;23;19920;-75
2023/04/01 07:39:52;;;;;;;;;;;;;;;12.93;52.74;93408.72;5066766;23;20300;-77
2023/04/01 07:42:14;;;;;;;;;;;;;;;12.96;53.20;93416.19;5093039;23;20248;-77
2023/04/01 07:44:24;;;;;;;;;;;;;;;13.03;52.70;93403.84;5092159;23;20332;-73
2023/04/01 07:46:33;;;;;;;;;;;;;;;12.75;53.43;93388.31;5066192;23;20009;-75
2023/04/01 07:48:39;;;;;;;;;;;;;;;12.79;53.54;93399.25;5067448;23;19944;-74
2023/04/01 07:50:53;;;;;;;;;;;;;;;12.95;53.79;93398.00;5067420;23;19921;-78
2023/04/01 07:53:13;;;;;;;;;;;;;;;13.09;52.79;93379.34;5043748;23;19929;-79
2023/04/01 07:55:14;;;;;;;;;;;;;;;13.11;52.71;93387.84;5093201;23;19928;-74
2023/04/01 07:57:27;;;;;;;;;;;;;;;13.22;53.01;93388.22;5092811;23;19920;-75
2023/04/01 07:59:32;;;;;;;;;;;;;;;13.31;52.44;93389.63;5065520;23;19925;-75
2023/04/01 08:01:54;;;;;;;;;;;;;;;13.24;52.19;93375.69;5042711;23;19921;-76
2023/04/01 08:04:34;;;;;;;;;;;;;;;13.37;52.19;93378.28;5091116;23;19921;-76
2023/04/01 08:06:41;;;;;;;;;;;;;;;13.47;52.71;93397.06;5017762;23;19922;-76
2023/04/01 08:08:47;;;;;;;;;;;;;;;13.57;51.81;93378.19;5015860;23;20066;-77
2023/04/01 08:10:48;;;;;;;;;;;;;;;13.56;51.85;93368.72;5019385;23;19922;-76
2023/04/01 08:12:54;;;;;;;;;;;;;;;13.61;51.28;93365.44;5091427;23;19991;-75
2023/04/01 08:14:59;;;;;;;;;;;;;;;13.53;51.63;93353.34;5040122;23;19961;-75
2023/04/01 08:17:09;;;;;;;;;;;;;;;13.64;51.42;93357.94;5091878;23;19931;-73
2023/04/01 08:19:30;;;;;;;;;;;;;;;13.77;51.39;93356.25;5091802;23;20011;-75
2023/04/01 08:21:32;;;;;;;;;;;;;;;13.85;50.54;93338.41;5091102;23;19988;-73
2023/04/01 08:23:38;;;;;;;;;;;;;;;13.61;51.08;93331.22;5064887;23;19925;-72
2023/04/01 08:25:42;;;;;;;;;;;;;;;13.66;51.00;93345.38;5065093;23;19950;-75
2023/04/01 08:27:44;;;;;;;;;;;;;;;13.64;50.91;93330.81;5065646;23;20025;-73
2023/04/01 08:29:51;;;;;;;;;;;;;;;13.77;50.86;93341.28;5039828;23;19925;-74
2023/04/01 08:32:00;;;;;;;;;;;;;;;14.05;50.60;93334.81;5092726;23;19920;-74
2023/04/01 08:34:02;;;;;;;;;;;;;;;14.19;50.10;93315.25;5041827;23;20003;-76
2023/04/01 08:36:11;;;;;;;;;;;;;;;14.24;50.22;93306.69;5066531;23;19921;-76
2023/04/01 08:38:18;;;;;;;;;;;;;;;14.28;50.22;93299.97;5091771;23;19927;-76
2023/04/01 08:40:38;;;;;;;;;;;;;;;14.37;49.82;93293.44;5064395;23;19920;-74
2023/04/01 08:43:05;;;;;;;;;;;;;;;14.52;48.96;93283.34;5091740;23;19925;-74
2023/04/01 08:45:10;;;;;;;;;;;;;;;14.31;49.28;93266.13;5056851;23;19976;-73
2023/04/01 08:47:23;;;;;;;;;;;;;;;14.52;49.71;93267.53;5067524;23;20019;-74
2023/04/01 08:49:35;;;;;;;;;;;;;;;14.96;48.73;93278.06;5092522;23;19948;-75
2023/04/01 08:51:45;;;;;;;;;;;;;;;15.14;48.07;93269.31;5091936;23;19921;-75
2023/04/01 08:53:53;;;;;;;;;;;;;;;15.18;48.03;93267.03;5090716;23;19921;-74
2023/04/01 08:55:55;;;;;;;;;;;;;;;15.43;47.50;93277.50;5065322;23;20269;-75
2023/04/01 08:58:01;;;;;;;;;;;;;;;15.68;46.38;93266.78;5091766;23;20251;-74
2023/04/01 09:00:18;;;;;;;;;;;;;;;15.55;45.99;93275.69;5089985;23;19921;-74
2023/04/01 09:02:19;;;;;;;;;;;;;;;15.42;46.68;93271.38;5092313;23;20343;-76
2023/04/01 09:04:40;;;;;;;;;;;;;;;15.45;45.84;93278.06;5093891;23;19924;-78
2023/04/01 09:06:48;;;;;;;;;;;;;;;15.40;44.79;93276.09;5069406;23;20217;-78
2023/04/01 09:09:09;;;;;;;;;;;;;;;15.49;44.95;93268.69;5093097;23;19932;-76
2023/04/01 09:11:29;;;;;;;;;;;;;;;15.43;44.35;93266.94;5092269;23;19979;-75
2023/04/01 09:13:34;;;;;;;;;;;;;;;15.48;44.38;93262.56;5092952;23;19929;-74
2023/04/01 09:15:35;;;;;;;;;;;;;;;15.42;45.39;93260.03;5068000;23;19927;-78
2023/04/01 09:17:45;;;;;;;;;;;;;;;15.45;44.96;93255.13;5095044;23;20374;-73
2023/04/01 09:19:53;;;;;;;;;;;;;;;15.58;44.14;93262.06;5092319;23;19921;-76
2023/04/01 09:22:18;;;;;;;;;;;;;;;15.57;43.99;93258.63;5092728;23;19920;-75
2023/04/01 09:24:22;;;;;;;;;;;;;;;15.60;43.56;93257.34;5067131;23;20427;-74
2023/04/01 09:26:23;;;;;;;;;;;;;;;15.65;43.29;93246.13;5068192;23;20382;-79
2023/04/01 09:28:28;;;;;;;;;;;;;;;15.69;42.64;93242.78;5067995;23;19921;-74
2023/04/01 09:30:49;;;;;;;;;;;;;;;15.83;42.54;93238.16;5064562;23;20364;-74
2023/04/01 09:32:53;;;;;;;;;;;;;;;15.96;42.15;93224.75;5091775;23;19928;-74
2023/04/01 09:35:01;;;;;;;;;;;;;;;15.96;41.25;93235.31;5091455;23;19920;-74
2023/04/01 09:37:22;;;;;;;;;;;;;;;15.92;41.42;93228.06;5091123;23;19920;-75
2023/04/01 09:39:23;;;;;;;;;;;;;;;15.89;41.50;93226.66;5065581;23;20304;-74
2023/04/01 09:41:32;;;;;;;;;;;;;;;16.01;41.63;93213.50;5065397;23;19921;-74
2023/04/01 09:43:33;;;;;;;;;;;;;;;16.33;41.08;93213.97;5041297;23;19932;-74
2023/04/01 09:45:37;;;;;;;;;;;;;;;16.57;40.95;93198.06;5090017;23;19920;-74
2023/04/01 09:47:48;;;;;;;;;;;;;;;16.78;40.75;93194.81;5065808;23;19928;-72
2023/04/01 09:49:57;;;;;;;;;;;;;;;17.23;39.85;93195.16;5091611;23;19952;-76
2023/04/01 09:52:06;;;;;;;;;;;;;;;17.58;37.84;93181.75;5065876;23;19927;-73
2023/04/01 09:54:26;;;;;;;;;;;;;;;17.94;37.30;93188.47;5065691;23;19937;-75
2023/04/01 09:56:30;;;;;;;;;;;;;;;17.93;37.19;93186.84;5092763;23;20352;-72
2023/04/01 09:58:49;;;;;;;;;;;;;;;17.51;38.25;93176.63;5091733;23;19995;-75
2023/04/01 10:01:09;;;;;;;;;;;;;;;17.45;38.89;93166.97;5090559;23;19925;-76
2023/04/01 10:03:30;;;;;;;;;;;;;;;17.70;38.87;93163.97;5092114;23;19925;-76
2023/04/01 10:05:50;;;;;;;;;;;;;;;18.11;38.45;93169.09;5092306;23;19960;-74
2023/04/01 10:08:10;;;;;;;;;;;;;;;17.70;34.58;93157.84;5065865;23;19928;-77
2023/04/01 10:10:21;;;;;;;;;;;;;;;17.42;36.83;93164.00;5091228;23;20746;-77
2023/04/01 10:12:28;;;;;;;;;;;;;;;17.42;38.18;93156.84;5065743;23;19921;-75
2023/04/01 10:14:49;;;;;;;;;;;;;;;17.42;39.11;93172.72;5064734;23;20291;-77
2023/04/01 10:16:58;;;;;;;;;;;;;;;17.21;39.15;93153.06;5091451;23;19921;-76
2023/04/01 10:19:18;;;;;;;;;;;;;;;16.78;39.82;93157.78;5066085;23;20307;-73
2023/04/01 10:21:39;;;;;;;;;;;;;;;16.89;39.87;93140.31;5091615;23;19920;-77
2023/04/01 10:24:00;;;;;;;;;;;;;;;17.12;39.58;93146.53;5091590;23;19921;-74
2023/04/01 10:26:05;;;;;;;;;;;;;;;17.02;39.07;93141.06;5065094;23;19940;-76
2023/04/01 10:28:18;;;;;;;;;;;;;;;17.31;38.38;93144.50;5091815;23;19921;-74
2023/04/01 10:30:33;;;;;;;;;;;;;;;17.64;37.85;93137.63;5090437;23;19971;-76
2023/04/01 10:32:53;;;;;;;;;;;;;;;17.60;38.11;93143.41;5040987;23;19925;-77
2023/04/01 10:34:56;;;;;;;;;;;;;;;17.20;39.22;93139.00;5065788;23;19945;-76
2023/04/01 10:37:04;;;;;;;;;;;;;;;17.17;39.64;93144.78;5065296;23;19983;-75
2023/04/01 10:39:25;;;;;;;;;;;;;;;17.14;40.31;93124.09;5065607;23;19956;-78
2023/04/01 10:41:46;;;;;;;;;;;;;;;17.01;40.93;93124.38;5090400;23;19952;-73
2023/04/01 10:43:54;;;;;;;;;;;;;;;16.90;40.58;93118.09;5065353;23;19921;-76
2023/04/01 10:46:00;;;;;;;;;;;;;;;16.77;40.88;93118.34;5090003;23;19921;-76
2023/04/01 10:48:05;;;;;;;;;;;;;;;16.82;40.47;93122.97;5091288;23;19924;-75
2023/04/01 10:50:25;;;;;;;;;;;;;;;16.89;41.27;93127.09;5091214;23;19925;-74
2023/04/01 10:52:36;;;;;;;;;;;;;;;16.90;39.27;93114.66;5091709;23;20597;-75
2023/04/01 10:54:56;;;;;;;;;;;;;;;16.97;39.49;93118.78;5091087;23;20335;-76
2023/04/01 10:57:16;;;;;;;;;;;;;;;16.96;40.34;93114.50;5091181;23;19927;-75